createdAt,value
2019-02-12T00:00:49.540Z,6.93
2019-02-12T00:03:17.825Z,7.22
2019-02-12T00:05:46.082Z,7.20
2019-02-12T00:08:14.380Z,7.35
2019-02-12T00:10:42.676Z,7.72
2019-02-12T00:13:10.957Z,7.78
2019-02-12T00:15:39.239Z,8.02
2019-02-12T00:18:08.403Z,7.90
2019-02-12T00:20:36.683Z,6.95
2019-02-12T00:23:04.957Z,7.20
2019-02-12T00:25:33.327Z,7.50
2019-02-12T00:28:01.724Z,6.60
2019-02-12T00:30:30.077Z,6.80
2019-02-12T00:32:58.367Z,7.10
2019-02-12T00:35:26.728Z,7.95
2019-02-12T00:37:55.032Z,7.80
2019-02-12T00:40:23.329Z,7.80
2019-02-12T00:42:51.586Z,8.40
2019-02-12T00:45:19.859Z,7.80
2019-02-12T00:47:48.155Z,8.30
2019-02-12T00:50:17.402Z,8.57
2019-02-12T00:52:45.694Z,8.40
2019-02-12T00:55:13.983Z,8.77
2019-02-12T00:57:42.276Z,8.35
2019-02-12T01:00:11.356Z,8.38
2019-02-12T01:02:39.652Z,8.80
2019-02-12T01:05:08.691Z,8.13
2019-02-12T01:07:36.983Z,8.30
2019-02-12T01:10:06.982Z,8.00
2019-02-12T01:12:35.367Z,8.23
2019-02-12T01:15:03.670Z,8.02
2019-02-12T01:17:31.961Z,7.82
2019-02-12T01:20:01.006Z,7.78
2019-02-12T01:22:29.303Z,8.15
2019-02-12T01:24:57.600Z,7.90
2019-02-12T01:27:26.655Z,8.40
2019-02-12T01:29:54.946Z,8.18
2019-02-12T01:32:23.304Z,7.43
2019-02-12T01:34:51.585Z,7.20
2019-02-12T01:37:19.966Z,7.68
2019-02-12T01:39:48.240Z,7.47
2019-02-12T01:42:16.499Z,6.90
2019-02-12T01:44:44.900Z,7.60
2019-02-12T01:47:13.172Z,8.10
2019-02-12T01:49:41.459Z,7.62
2019-02-12T01:52:09.815Z,8.10
2019-02-12T01:54:38.101Z,6.87
2019-02-12T01:57:06.369Z,7.35
2019-02-12T01:59:34.654Z,6.87
2019-02-12T02:02:02.897Z,7.23
2019-02-12T02:04:31.183Z,7.30
2019-02-12T02:06:59.470Z,7.15
2019-02-12T02:09:27.763Z,7.05
2019-02-12T02:11:56.039Z,7.32
2019-02-12T02:14:24.327Z,6.80
2019-02-12T02:16:52.609Z,6.78
2019-02-12T02:19:21.676Z,6.75
2019-02-12T02:21:49.967Z,7.25
2019-02-12T02:24:18.259Z,6.95
2019-02-12T02:26:47.318Z,7.47
2019-02-12T02:29:15.575Z,7.45
2019-02-12T02:31:43.853Z,7.28
2019-02-12T02:34:12.139Z,7.85
2019-02-12T02:36:40.418Z,7.70
2019-02-12T02:39:08.686Z,7.40
2019-02-12T02:41:36.959Z,7.32
2019-02-12T02:44:05.258Z,7.55
2019-02-12T02:46:33.581Z,7.55
2019-02-12T02:49:01.860Z,7.72
2019-02-12T02:51:30.158Z,7.70
2019-02-12T02:53:58.492Z,7.35
2019-02-12T02:56:27.527Z,7.40
2019-02-12T02:58:55.817Z,8.05
2019-02-12T03:01:24.094Z,7.53
2019-02-12T03:03:52.400Z,7.28
2019-02-12T03:06:21.430Z,7.45
2019-02-12T03:08:49.706Z,7.32
2019-02-12T03:11:19.111Z,7.78
2019-02-12T03:13:48.114Z,7.87
2019-02-12T03:16:16.394Z,7.40
2019-02-12T03:18:44.688Z,7.35
2019-02-12T03:21:12.955Z,7.20
2019-02-12T03:23:41.237Z,7.10
2019-02-12T03:26:09.540Z,6.65
2019-02-12T03:28:38.598Z,7.28
2019-02-12T03:31:06.903Z,6.87
2019-02-12T03:33:35.968Z,7.20
2019-02-12T03:36:04.255Z,6.75
2019-02-12T03:38:32.543Z,7.00
2019-02-12T03:41:00.894Z,7.05
2019-02-12T03:43:29.159Z,7.05
2019-02-12T03:45:57.446Z,6.75
2019-02-12T03:48:25.724Z,6.80
2019-02-12T03:50:54.119Z,6.53
2019-02-12T03:53:22.477Z,6.55
2019-02-12T03:55:50.859Z,6.80
2019-02-12T03:58:19.227Z,6.43
2019-02-12T04:00:47.511Z,6.55
2019-02-12T04:03:15.792Z,6.25
2019-02-12T04:05:44.068Z,6.20
2019-02-12T04:08:12.315Z,6.10
2019-02-12T04:10:40.600Z,6.20
2019-02-12T04:13:08.898Z,5.87
2019-02-12T04:15:37.191Z,6.47
2019-02-12T04:18:06.238Z,5.95
2019-02-12T04:20:34.530Z,6.20
2019-02-12T04:23:02.802Z,5.87
2019-02-12T04:25:31.086Z,5.22
2019-02-12T04:27:59.371Z,5.80
2019-02-12T04:30:29.353Z,6.22
2019-02-12T04:32:57.721Z,6.10
2019-02-12T04:35:26.741Z,5.62
2019-02-12T04:37:55.015Z,5.70
2019-02-12T04:40:23.388Z,6.12
2019-02-12T04:42:51.634Z,6.37
2019-02-12T04:45:19.937Z,6.87
2019-02-12T04:47:48.324Z,6.72
2019-02-12T04:50:16.692Z,6.72
2019-02-12T04:52:44.972Z,6.93
2019-02-12T04:55:13.253Z,6.62
2019-02-12T04:57:41.536Z,7.25
2019-02-12T05:00:13.276Z,6.70
2019-02-12T05:02:42.500Z,6.80
2019-02-12T05:05:10.771Z,6.57
2019-02-12T05:07:39.142Z,6.18
2019-02-12T05:10:25.303Z,6.20
2019-02-12T05:12:53.598Z,6.90
2019-02-12T05:15:21.890Z,6.72
2019-02-12T05:17:50.247Z,6.53
2019-02-12T05:20:18.618Z,6.80
2019-02-12T05:22:46.921Z,6.70
2019-02-12T05:25:15.271Z,7.03
2019-02-12T05:27:43.523Z,6.60
2019-02-12T05:30:12.546Z,6.50
2019-02-12T05:32:40.840Z,6.50
2019-02-12T05:35:09.084Z,5.90
2019-02-12T05:37:37.380Z,6.00
2019-02-12T05:40:05.698Z,5.70
2019-02-12T05:42:33.988Z,5.75
2019-02-12T05:45:02.308Z,5.28
2019-02-12T05:47:30.719Z,5.95
2019-02-12T05:49:59.057Z,4.75
2019-02-12T05:52:27.329Z,5.10
2019-02-12T05:54:55.605Z,4.40
2019-02-12T05:57:23.891Z,4.47
2019-02-12T05:59:52.175Z,4.57
2019-02-12T06:02:20.470Z,4.30
2019-02-12T06:04:49.537Z,4.70
2019-02-12T06:07:17.894Z,4.62
2019-02-12T06:09:46.168Z,4.07
2019-02-12T06:12:14.451Z,4.45
2019-02-12T06:14:42.739Z,4.47
2019-02-12T06:17:11.018Z,4.30
2019-02-12T06:19:39.272Z,4.47
2019-02-12T06:22:07.592Z,4.80
2019-02-12T06:24:36.630Z,4.35
2019-02-12T06:27:05.060Z,4.40
2019-02-12T06:29:33.406Z,3.80
2019-02-12T06:32:01.701Z,3.90
2019-02-12T06:34:29.965Z,4.20
2019-02-12T06:36:58.384Z,3.17
2019-02-12T06:39:26.623Z,3.23
2019-02-12T06:41:55.034Z,3.42
2019-02-12T06:44:23.290Z,3.47
2019-02-12T06:46:51.571Z,6.97
2019-02-12T06:49:20.617Z,4.28
2019-02-12T06:51:48.957Z,4.00
2019-02-12T06:54:17.999Z,3.67
2019-02-12T06:56:46.271Z,3.87
2019-02-12T06:59:14.558Z,3.80
2019-02-12T07:01:42.821Z,4.05
2019-02-12T07:04:11.119Z,4.15
2019-02-12T07:06:42.097Z,4.33
2019-02-12T07:09:10.558Z,4.93
2019-02-12T07:14:53.968Z,4.47
2019-02-12T07:17:34.265Z,4.65
2019-02-12T07:23:03.559Z,3.75
2019-02-12T07:26:05.403Z,3.60
2019-02-12T07:28:45.555Z,4.25
2019-02-12T07:31:21.628Z,4.15
2019-02-12T07:33:54.588Z,3.72
2019-02-12T07:36:45.319Z,3.70
2019-02-12T07:39:24.486Z,4.20
2019-02-12T07:41:55.251Z,4.40
2019-02-12T07:44:31.311Z,6.00
2019-02-12T07:47:18.101Z,9.87
2019-02-12T07:49:47.339Z,8.40
2019-02-12T07:52:23.515Z,7.32
2019-02-12T07:58:13.966Z,10.25
2019-02-12T08:00:54.067Z,5.87
2019-02-12T08:03:30.920Z,6.28
2019-02-12T08:06:01.762Z,6.30
2019-02-12T08:08:37.161Z,5.97
2019-02-12T08:11:07.131Z,5.30
2019-02-12T08:13:57.150Z,5.62
2019-02-12T08:19:38.539Z,5.25
2019-02-12T08:22:14.169Z,5.80
2019-02-12T08:24:52.167Z,5.43
2019-02-12T08:27:26.485Z,5.20
2019-02-12T08:29:59.986Z,5.30
2019-02-12T08:39:09.600Z,5.35
2019-02-12T08:41:48.887Z,6.15
2019-02-12T08:44:36.607Z,5.68
2019-02-12T08:47:25.480Z,5.37
2019-02-12T08:50:00.611Z,5.12
2019-02-12T08:55:51.246Z,5.80
2019-02-12T08:58:24.477Z,5.45
2019-02-12T09:00:53.464Z,5.93
2019-02-12T09:03:28.654Z,5.00
2019-02-12T09:05:56.966Z,5.72
2019-02-12T09:08:29.968Z,5.85
2019-02-12T09:13:56.564Z,5.70
2019-02-12T09:16:53.482Z,5.25
2019-02-12T09:19:24.011Z,5.25
2019-02-12T09:22:00.521Z,5.43
2019-02-12T09:24:39.196Z,4.95
2019-02-12T09:30:34.254Z,5.05
2019-02-12T09:33:24.034Z,5.20
2019-02-12T09:35:53.063Z,5.00
2019-02-12T09:41:24.859Z,5.18
2019-02-12T09:43:57.493Z,5.00
2019-02-12T09:49:38.330Z,4.43
2019-02-12T09:52:08.370Z,4.80
2019-02-12T09:54:54.171Z,4.22
2019-02-12T09:57:39.217Z,4.25
2019-02-12T10:00:25.249Z,4.00
2019-02-12T10:06:21.526Z,4.17
2019-02-12T10:09:05.535Z,3.72
2019-02-12T10:14:38.975Z,4.12
2019-02-12T10:17:15.798Z,4.35
2019-02-12T10:19:45.567Z,4.50
2019-02-12T10:22:16.993Z,4.85
2019-02-12T10:24:57.032Z,5.00
2019-02-12T10:27:26.118Z,4.80
2019-02-12T10:30:05.934Z,4.57
2019-02-12T10:32:33.731Z,4.95
2019-02-12T10:35:02.004Z,5.07
2019-02-12T10:37:30.332Z,5.47
2019-02-12T10:39:59.392Z,4.87
2019-02-12T10:42:27.766Z,4.30
2019-02-12T10:44:56.070Z,4.90
2019-02-12T10:47:24.419Z,4.97
2019-02-12T10:49:52.790Z,4.85
2019-02-12T10:52:21.067Z,4.93
2019-02-12T10:54:49.358Z,5.50
2019-02-12T10:57:17.725Z,5.40
2019-02-12T10:59:46.114Z,6.50
2019-02-12T11:02:14.476Z,6.00
2019-02-12T11:04:42.759Z,5.87
2019-02-12T11:07:11.129Z,5.10
2019-02-12T11:09:39.410Z,5.40
2019-02-12T11:12:07.777Z,4.90
2019-02-12T11:14:36.102Z,4.50
2019-02-12T11:17:04.361Z,4.00
2019-02-12T11:19:32.715Z,4.95
2019-02-12T11:22:01.000Z,4.43
2019-02-12T11:24:35.414Z,3.80
2019-02-12T11:26:58.333Z,4.57
2019-02-12T11:29:26.630Z,4.53
2019-02-12T11:31:54.914Z,4.18
2019-02-12T11:34:23.375Z,3.53
2019-02-12T11:36:51.642Z,3.70
2019-02-12T11:39:19.929Z,3.35
2019-02-12T11:41:48.201Z,3.67
2019-02-12T11:44:16.487Z,3.90
2019-02-12T11:46:44.780Z,2.80
2019-02-12T11:49:13.058Z,2.90
2019-02-12T11:51:41.416Z,3.28
2019-02-12T11:54:09.685Z,2.67
2019-02-12T11:56:37.960Z,2.80
2019-02-12T11:59:06.497Z,2.50
2019-02-12T12:01:35.535Z,2.62
2019-02-12T12:04:03.820Z,2.53
2019-02-12T12:06:32.490Z,1.90
2019-02-12T12:09:00.776Z,2.28
2019-02-12T12:11:29.170Z,2.22
2019-02-12T12:13:57.437Z,2.37
2019-02-12T12:16:25.799Z,2.62
2019-02-12T12:18:54.174Z,2.47
2019-02-12T12:21:22.483Z,2.28
2019-02-12T12:23:50.746Z,2.50
2019-02-12T12:26:19.023Z,2.42
2019-02-12T12:28:47.295Z,2.08
2019-02-12T12:31:15.587Z,2.20
2019-02-12T12:33:44.607Z,2.22
2019-02-12T12:36:13.643Z,2.62
2019-02-12T12:38:43.719Z,2.53
2019-02-12T12:41:11.064Z,2.40
2019-02-12T12:43:39.358Z,2.45
2019-02-12T12:46:07.642Z,2.42
2019-02-12T12:48:35.938Z,2.33
2019-02-12T12:51:04.229Z,2.55
2019-02-12T12:53:32.487Z,3.08
2019-02-12T12:56:00.772Z,2.60
2019-02-12T12:58:29.060Z,2.42
2019-02-12T13:00:57.334Z,2.30
2019-02-12T13:03:25.599Z,3.08
2019-02-12T13:05:53.890Z,3.40
2019-02-12T13:08:22.176Z,3.10
2019-02-12T13:10:50.431Z,3.08
2019-02-12T13:13:18.722Z,3.50
2019-02-12T13:15:47.699Z,3.50
2019-02-12T13:18:16.059Z,3.45
2019-02-12T13:20:44.438Z,2.90
2019-02-12T13:23:12.842Z,3.28
2019-02-12T13:25:41.098Z,3.05
2019-02-12T13:28:09.406Z,3.60
2019-02-12T13:30:37.747Z,6.93
2019-02-12T13:33:06.139Z,3.80
2019-02-12T13:35:34.429Z,3.20
2019-02-12T13:38:02.784Z,2.80
2019-02-12T13:40:31.149Z,2.80
2019-02-12T13:42:59.419Z,3.17
2019-02-12T13:45:27.685Z,3.08
2019-02-12T13:47:55.964Z,2.80
2019-02-12T13:50:24.230Z,3.30
2019-02-12T13:52:52.533Z,2.97
2019-02-12T13:55:22.609Z,3.28
2019-02-12T13:57:49.187Z,3.10
2019-02-12T14:00:17.476Z,3.50
2019-02-12T14:02:45.765Z,3.37
2019-02-12T14:05:17.784Z,2.85
2019-02-12T14:07:46.044Z,2.60
2019-02-12T14:10:14.437Z,2.90
2019-02-12T14:12:42.703Z,3.10
2019-02-12T14:15:12.059Z,2.73
2019-02-12T14:17:40.336Z,2.80
2019-02-12T14:20:09.391Z,2.75
2019-02-12T14:22:37.656Z,3.20
2019-02-12T14:25:05.903Z,2.80
2019-02-12T14:27:34.187Z,2.63
2019-02-12T14:30:02.459Z,2.75
2019-02-12T14:32:30.735Z,3.05
2019-02-12T14:34:59.018Z,2.90
2019-02-12T14:37:27.315Z,3.05
2019-02-12T14:39:55.594Z,2.97
2019-02-12T14:42:23.970Z,2.58
2019-02-12T14:44:52.241Z,2.47
2019-02-12T14:47:20.510Z,2.30
2019-02-12T14:49:48.775Z,2.40
2019-02-12T14:52:17.047Z,2.22
2019-02-12T14:54:45.320Z,2.50
2019-02-12T14:57:13.615Z,2.62
2019-02-12T15:02:16.739Z,2.60
2019-02-12T15:04:45.011Z,2.83
2019-02-12T15:07:13.298Z,2.50
2019-02-12T15:09:41.568Z,3.22
2019-02-12T15:12:09.927Z,2.55
2019-02-12T15:14:38.206Z,3.10
2019-02-12T15:17:06.491Z,2.87
2019-02-12T15:19:34.809Z,2.90
2019-02-12T15:22:03.055Z,3.00
2019-02-12T15:24:31.335Z,2.78
2019-02-12T15:26:59.687Z,2.80
2019-02-12T15:29:27.972Z,3.55
2019-02-12T15:31:56.238Z,3.03
2019-02-12T15:34:24.498Z,5.10
2019-02-12T15:36:52.760Z,2.85
2019-02-12T15:39:21.878Z,3.05
2019-02-12T15:41:50.158Z,2.97
2019-02-12T15:44:18.431Z,2.60
2019-02-12T15:46:46.806Z,8.95
2019-02-12T15:49:15.073Z,13.57
2019-02-12T15:51:43.367Z,3.10
2019-02-12T15:54:11.623Z,3.60
2019-02-12T15:56:39.889Z,3.47
2019-02-12T15:59:08.915Z,3.13
2019-02-12T16:01:37.183Z,3.62
2019-02-12T16:04:05.462Z,3.75
2019-02-12T16:06:33.825Z,4.10
2019-02-12T16:09:02.099Z,4.40
2019-02-12T16:11:30.352Z,3.53
2019-02-12T16:13:59.405Z,2.80
2019-02-12T16:16:29.932Z,3.80
2019-02-12T16:18:57.267Z,4.22
2019-02-12T16:21:25.631Z,6.50
2019-02-12T16:23:54.013Z,4.80
2019-02-12T16:26:22.288Z,5.47
2019-02-12T16:28:50.576Z,5.70
2019-02-12T16:31:18.944Z,6.25
2019-02-12T16:33:47.320Z,4.95
2019-02-12T16:36:15.575Z,5.72
2019-02-12T16:38:43.847Z,6.15
2019-02-12T16:41:13.487Z,5.70
2019-02-12T16:43:41.858Z,4.62
2019-02-12T16:46:12.692Z,4.07
2019-02-12T16:48:41.075Z,4.90
2019-02-12T16:51:09.444Z,6.18
2019-02-12T16:53:37.743Z,7.18
2019-02-12T16:56:08.313Z,8.38
2019-02-12T16:58:34.383Z,7.15
2019-02-12T17:01:04.497Z,6.05
2019-02-12T17:03:31.032Z,6.25
2019-02-12T17:05:59.346Z,7.73
2019-02-12T17:08:27.650Z,15.25
2019-02-12T17:10:55.969Z,6.70
2019-02-12T17:13:24.251Z,9.05
2019-02-12T17:15:54.151Z,11.65
2019-02-12T17:18:22.527Z,14.07
2019-02-12T17:20:50.840Z,7.75
2019-02-12T17:23:19.911Z,15.52
2019-02-12T17:25:48.308Z,17.52
2019-02-12T17:28:17.370Z,16.27
2019-02-12T17:30:45.672Z,11.73
2019-02-12T17:33:14.727Z,8.93
2019-02-12T17:35:43.023Z,6.95
2019-02-12T17:38:11.298Z,8.38
2019-02-12T17:40:39.663Z,7.20
2019-02-12T17:43:07.935Z,10.75
2019-02-12T17:45:36.321Z,7.22
2019-02-12T17:48:04.600Z,9.20
2019-02-12T17:50:32.963Z,8.48
2019-02-12T17:53:01.233Z,11.23
2019-02-12T17:55:29.500Z,5.77
2019-02-12T17:57:57.803Z,4.63
2019-02-12T18:00:31.727Z,5.93
2019-02-12T18:03:00.003Z,4.22
2019-02-12T18:05:28.445Z,4.50
2019-02-12T18:07:56.777Z,4.62
2019-02-12T18:10:25.830Z,4.80
2019-02-12T18:12:54.107Z,5.97
2019-02-12T18:15:22.403Z,5.25
2019-02-12T18:17:50.790Z,5.72
2019-02-12T18:20:26.338Z,10.57
2019-02-12T18:22:48.823Z,9.43
2019-02-12T18:25:17.079Z,6.80
2019-02-12T18:27:46.111Z,6.30
2019-02-12T18:30:15.339Z,5.90
2019-02-12T18:32:44.386Z,5.80
2019-02-12T18:35:12.664Z,6.20
2019-02-12T18:37:41.048Z,6.72
2019-02-12T18:40:09.312Z,6.27
2019-02-12T18:42:37.608Z,6.60
2019-02-12T18:45:06.691Z,7.27
2019-02-12T18:47:34.943Z,7.47
2019-02-12T18:50:03.973Z,7.22
2019-02-12T18:52:32.247Z,6.97
2019-02-12T18:55:00.541Z,6.57
2019-02-12T18:57:29.579Z,6.53
2019-02-12T18:59:57.864Z,6.50
2019-02-12T19:02:26.143Z,7.18
2019-02-12T19:04:54.435Z,6.85
2019-02-12T19:07:22.714Z,7.18
2019-02-12T19:09:51.003Z,7.57
2019-02-12T19:12:19.270Z,7.23
2019-02-12T19:14:47.514Z,7.33
2019-02-12T19:17:15.817Z,8.00
2019-02-12T19:19:44.170Z,7.70
2019-02-12T19:22:12.630Z,8.40
2019-02-12T19:24:41.034Z,8.32
2019-02-12T19:27:09.319Z,7.80
2019-02-12T19:29:37.602Z,7.37
2019-02-12T19:32:05.891Z,6.72
2019-02-12T19:34:35.439Z,7.25
2019-02-12T19:37:03.735Z,6.93
2019-02-12T19:39:32.015Z,6.97
2019-02-12T19:42:00.359Z,7.50
2019-02-12T19:44:29.667Z,9.35
2019-02-12T19:46:59.019Z,9.60
2019-02-12T19:49:27.379Z,8.93
2019-02-12T19:51:55.668Z,8.18
2019-02-12T19:54:24.031Z,7.95
2019-02-12T19:56:58.116Z,6.93
2019-02-12T19:59:20.800Z,6.57
2019-02-12T20:01:49.090Z,6.43
2019-02-12T20:04:17.383Z,6.30
2019-02-12T20:06:46.543Z,6.53
2019-02-12T20:09:14.824Z,6.40
2019-02-12T20:11:43.118Z,6.68
2019-02-12T20:14:11.418Z,7.00
2019-02-12T20:16:39.714Z,12.98
2019-02-12T20:19:07.991Z,9.68
2019-02-12T20:21:36.278Z,11.93
2019-02-12T20:24:04.673Z,19.37
2019-02-12T20:26:33.813Z,20.65
2019-02-12T20:29:03.426Z,21.98
2019-02-12T20:31:34.483Z,16.73
2019-02-12T20:34:04.322Z,15.68
2019-02-12T20:36:43.809Z,14.02
2019-02-12T20:39:12.136Z,11.77
2019-02-12T20:41:40.514Z,11.00
2019-02-12T20:44:09.596Z,10.75
2019-02-12T20:46:37.899Z,9.65
2019-02-12T20:49:06.265Z,9.88
2019-02-12T20:51:34.567Z,12.30
2019-02-12T20:54:02.922Z,13.70
2019-02-12T20:56:31.208Z,10.68
2019-02-12T20:58:59.497Z,9.60
2019-02-12T21:01:28.562Z,9.30
2019-02-12T21:03:56.845Z,9.20
2019-02-12T21:06:25.698Z,11.48
2019-02-12T21:08:53.988Z,12.05
2019-02-12T21:11:22.376Z,11.57
2019-02-12T21:13:50.676Z,12.18
2019-02-12T21:16:19.035Z,14.77
2019-02-12T21:18:47.324Z,14.20
2019-02-12T21:21:15.580Z,16.17
2019-02-12T21:23:43.842Z,12.20
2019-02-12T21:26:12.236Z,10.95
2019-02-12T21:28:40.607Z,10.00
2019-02-12T21:31:08.883Z,9.45
2019-02-12T21:33:37.161Z,9.80
2019-02-12T21:36:05.442Z,9.77
2019-02-12T21:38:33.735Z,10.65
2019-02-12T21:41:02.084Z,10.18
2019-02-12T21:43:30.351Z,10.40
2019-02-12T21:45:58.640Z,9.88
2019-02-12T21:48:26.944Z,9.45
2019-02-12T21:50:55.306Z,9.18
2019-02-12T21:53:23.648Z,10.40
2019-02-12T21:55:51.947Z,9.23
2019-02-12T21:58:20.242Z,10.30
2019-02-12T22:00:48.515Z,9.57
2019-02-12T22:03:16.803Z,8.20
2019-02-12T22:05:45.055Z,7.93
2019-02-12T22:08:13.343Z,7.45
2019-02-12T22:10:46.405Z,7.95
2019-02-12T22:13:10.083Z,8.60
2019-02-12T22:15:38.446Z,8.00
2019-02-12T22:18:06.743Z,7.97
2019-02-12T22:20:35.010Z,8.57
2019-02-12T22:23:03.302Z,8.20
2019-02-12T22:25:31.567Z,7.80
2019-02-12T22:27:59.834Z,7.53
2019-02-12T22:30:28.110Z,7.10
2019-02-12T22:32:56.401Z,7.93
2019-02-12T22:35:24.692Z,7.82
2019-02-12T22:37:53.755Z,7.57
2019-02-12T22:40:22.043Z,8.13
2019-02-12T22:42:50.322Z,7.97
2019-02-12T22:45:18.599Z,8.02
2019-02-12T22:47:46.884Z,7.50
2019-02-12T22:50:15.161Z,7.78
2019-02-12T22:52:43.499Z,8.07
2019-02-12T22:55:11.783Z,7.37
2019-02-12T22:57:48.562Z,7.37
2019-02-12T23:00:14.986Z,6.95
2019-02-12T23:02:43.276Z,7.28
2019-02-12T23:05:11.562Z,7.60
2019-02-12T23:07:39.836Z,7.50
2019-02-12T23:10:08.129Z,8.13
2019-02-12T23:12:36.399Z,8.10
2019-02-12T23:15:05.458Z,8.80
2019-02-12T23:17:33.744Z,8.77
2019-02-12T23:20:02.040Z,8.65
2019-02-12T23:22:30.385Z,8.45
2019-02-12T23:24:58.675Z,8.07
2019-02-12T23:27:26.915Z,8.20
2019-02-12T23:29:55.206Z,8.48
2019-02-12T23:32:23.482Z,8.13
2019-02-12T23:34:56.994Z,8.18
2019-02-12T23:37:20.846Z,8.55
2019-02-12T23:39:49.135Z,8.60
2019-02-12T23:42:17.406Z,8.80
2019-02-12T23:44:45.690Z,8.63
2019-02-12T23:47:14.058Z,9.23
2019-02-12T23:49:42.343Z,9.23
2019-02-12T23:52:10.595Z,9.60
2019-02-12T23:54:38.999Z,9.68
2019-02-12T23:57:07.266Z,9.55
2019-02-12T23:59:35.637Z,9.65
